sensor_id;sensor_type;location;lat;lon;timestamp;P1;durP1;ratioP1;P2;durP2;ratioP2
37787;SDS011;23627;53.302;-6.362;2022-10-23T00:01:33;2.60;;;1.00;;
37787;SDS011;23627;53.302;-6.362;2022-10-23T00:04:07;4.93;;;1.20;;
37787;SDS011;23627;53.302;-6.362;2022-10-23T00:06:38;2.73;;;0.90;;
37787;SDS011;23627;53.302;-6.362;2022-10-23T00:09:05;6.00;;;1.25;;
37787;SDS011;23627;53.302;-6.362;2022-10-23T00:11:32;3.15;;;1.15;;
37787;SDS011;23627;53.302;-6.362;2022-10-23T00:14:02;3.83;;;1.10;;
37787;SDS011;23627;53.302;-6.362;2022-10-23T00:16:29;2.13;;;0.90;;
37787;SDS011;23627;53.302;-6.362;2022-10-23T00:18:55;7.95;;;2.70;;
37787;SDS011;23627;53.302;-6.362;2022-10-23T00:21:22;9.55;;;2.35;;
37787;SDS011;23627;53.302;-6.362;2022-10-23T00:23:48;6.65;;;2.42;;
37787;SDS011;23627;53.302;-6.362;2022-10-23T00:26:14;4.80;;;1.75;;
37787;SDS011;23627;53.302;-6.362;2022-10-23T00:28:43;5.82;;;2.08;;
37787;SDS011;23627;53.302;-6.362;2022-10-23T00:31:11;9.15;;;2.40;;
37787;SDS011;23627;53.302;-6.362;2022-10-23T00:33:37;6.93;;;1.85;;
37787;SDS011;23627;53.302;-6.362;2022-10-23T00:36:04;6.78;;;2.10;;
37787;SDS011;23627;53.302;-6.362;2022-10-23T00:38:31;8.07;;;2.30;;
37787;SDS011;23627;53.302;-6.362;2022-10-23T00:40:57;6.82;;;2.30;;
37787;SDS011;23627;53.302;-6.362;2022-10-23T00:43:24;6.90;;;1.70;;
37787;SDS011;23627;53.302;-6.362;2022-10-23T00:45:52;5.07;;;1.92;;
37787;SDS011;23627;53.302;-6.362;2022-10-23T00:48:18;5.28;;;1.80;;
37787;SDS011;23627;53.302;-6.362;2022-10-23T00:50:45;6.10;;;2.00;;
37787;SDS011;23627;53.302;-6.362;2022-10-23T00:53:12;6.20;;;1.98;;
37787;SDS011;23627;53.302;-6.362;2022-10-23T00:55:38;7.32;;;1.80;;
37787;SDS011;23627;53.302;-6.362;2022-10-23T00:58:11;5.72;;;1.80;;
37787;SDS011;23627;53.302;-6.362;2022-10-23T01:00:43;6.25;;;2.15;;
37787;SDS011;23627;53.302;-6.362;2022-10-23T01:03:12;9.15;;;2.20;;
37787;SDS011;23627;53.302;-6.362;2022-10-23T01:05:43;7.10;;;2.00;;
37787;SDS011;23627;53.302;-6.362;2022-10-23T01:08:28;5.57;;;2.00;;
37787;SDS011;23627;53.302;-6.362;2022-10-23T01:11:03;6.22;;;2.08;;
37787;SDS011;23627;53.302;-6.362;2022-10-23T01:16:21;6.60;;;2.25;;
37787;SDS011;23627;53.302;-6.362;2022-10-23T01:19:01;5.07;;;1.85;;
37787;SDS011;23627;53.302;-6.362;2022-10-23T01:29:48;4.95;;;1.92;;
37787;SDS011;23627;53.302;-6.362;2022-10-23T01:37:43;6.10;;;2.35;;
37787;SDS011;23627;53.302;-6.362;2022-10-23T01:40:18;6.65;;;1.85;;
37787;SDS011;23627;53.302;-6.362;2022-10-23T01:42:49;6.35;;;1.90;;
37787;SDS011;23627;53.302;-6.362;2022-10-23T01:45:33;6.03;;;2.40;;
37787;SDS011;23627;53.302;-6.362;2022-10-23T01:48:05;8.68;;;2.50;;
37787;SDS011;23627;53.302;-6.362;2022-10-23T01:50:35;8.30;;;2.20;;
37787;SDS011;23627;53.302;-6.362;2022-10-23T01:53:04;6.93;;;2.05;;
37787;SDS011;23627;53.302;-6.362;2022-10-23T01:55:30;6.28;;;1.90;;
37787;SDS011;23627;53.302;-6.362;2022-10-23T01:57:57;6.93;;;2.00;;
37787;SDS011;23627;53.302;-6.362;2022-10-23T02:00:26;6.13;;;1.88;;
37787;SDS011;23627;53.302;-6.362;2022-10-23T02:02:52;5.30;;;1.65;;
37787;SDS011;23627;53.302;-6.362;2022-10-23T02:05:24;5.43;;;2.00;;
37787;SDS011;23627;53.302;-6.362;2022-10-23T02:07:52;5.27;;;1.40;;
37787;SDS011;23627;53.302;-6.362;2022-10-23T02:10:19;3.25;;;1.42;;
37787;SDS011;23627;53.302;-6.362;2022-10-23T02:28:56;4.07;;;1.52;;
37787;SDS011;23627;53.302;-6.362;2022-10-23T02:31:35;4.20;;;1.60;;
37787;SDS011;23627;53.302;-6.362;2022-10-23T02:34:00;4.10;;;1.30;;
37787;SDS011;23627;53.302;-6.362;2022-10-23T02:36:26;3.30;;;1.38;;
37787;SDS011;23627;53.302;-6.362;2022-10-23T02:38:52;3.13;;;1.15;;
37787;SDS011;23627;53.302;-6.362;2022-10-23T02:49:34;2.28;;;0.90;;
37787;SDS011;23627;53.302;-6.362;2022-10-23T02:58:09;2.90;;;1.00;;
37787;SDS011;23627;53.302;-6.362;2022-10-23T03:03:21;2.45;;;1.13;;
37787;SDS011;23627;53.302;-6.362;2022-10-23T03:05:54;3.55;;;1.00;;
37787;SDS011;23627;53.302;-6.362;2022-10-23T03:08:20;3.25;;;1.27;;
37787;SDS011;23627;53.302;-6.362;2022-10-23T03:10:46;3.25;;;1.38;;
37787;SDS011;23627;53.302;-6.362;2022-10-23T03:13:12;4.57;;;1.15;;
37787;SDS011;23627;53.302;-6.362;2022-10-23T03:15:37;3.70;;;1.00;;
37787;SDS011;23627;53.302;-6.362;2022-10-23T03:18:03;2.63;;;1.25;;
37787;SDS011;23627;53.302;-6.362;2022-10-23T03:20:29;4.18;;;1.65;;
37787;SDS011;23627;53.302;-6.362;2022-10-23T03:22:55;2.25;;;1.08;;
37787;SDS011;23627;53.302;-6.362;2022-10-23T03:25:20;4.10;;;1.65;;
37787;SDS011;23627;53.302;-6.362;2022-10-23T03:27:46;3.05;;;1.15;;
37787;SDS011;23627;53.302;-6.362;2022-10-23T03:30:12;2.65;;;1.05;;
37787;SDS011;23627;53.302;-6.362;2022-10-23T03:32:37;3.38;;;1.10;;
37787;SDS011;23627;53.302;-6.362;2022-10-23T03:35:03;3.50;;;1.00;;
37787;SDS011;23627;53.302;-6.362;2022-10-23T03:37:29;2.38;;;1.02;;
37787;SDS011;23627;53.302;-6.362;2022-10-23T03:39:55;1.70;;;1.00;;
37787;SDS011;23627;53.302;-6.362;2022-10-23T03:42:21;2.75;;;0.80;;
37787;SDS011;23627;53.302;-6.362;2022-10-23T03:44:46;2.70;;;1.08;;
37787;SDS011;23627;53.302;-6.362;2022-10-23T03:47:13;3.15;;;0.90;;
37787;SDS011;23627;53.302;-6.362;2022-10-23T03:49:39;2.53;;;0.70;;
37787;SDS011;23627;53.302;-6.362;2022-10-23T03:52:05;2.15;;;1.13;;
37787;SDS011;23627;53.302;-6.362;2022-10-23T03:54:31;2.40;;;0.90;;
37787;SDS011;23627;53.302;-6.362;2022-10-23T03:56:57;2.38;;;0.98;;
37787;SDS011;23627;53.302;-6.362;2022-10-23T03:59:24;2.33;;;0.75;;
37787;SDS011;23627;53.302;-6.362;2022-10-23T04:01:50;2.53;;;0.80;;
37787;SDS011;23627;53.302;-6.362;2022-10-23T04:04:16;2.20;;;0.90;;
37787;SDS011;23627;53.302;-6.362;2022-10-23T04:06:42;2.83;;;0.90;;
37787;SDS011;23627;53.302;-6.362;2022-10-23T04:09:08;2.45;;;0.80;;
37787;SDS011;23627;53.302;-6.362;2022-10-23T04:11:34;3.97;;;0.90;;
37787;SDS011;23627;53.302;-6.362;2022-10-23T04:14:00;2.47;;;0.70;;
37787;SDS011;23627;53.302;-6.362;2022-10-23T04:16:25;1.52;;;0.70;;
37787;SDS011;23627;53.302;-6.362;2022-10-23T04:18:51;2.63;;;0.70;;
37787;SDS011;23627;53.302;-6.362;2022-10-23T04:21:17;1.95;;;0.80;;
37787;SDS011;23627;53.302;-6.362;2022-10-23T04:23:43;2.40;;;0.82;;
37787;SDS011;23627;53.302;-6.362;2022-10-23T04:26:09;3.22;;;0.90;;
37787;SDS011;23627;53.302;-6.362;2022-10-23T04:28:35;3.53;;;0.70;;
37787;SDS011;23627;53.302;-6.362;2022-10-23T04:31:00;2.70;;;0.90;;
37787;SDS011;23627;53.302;-6.362;2022-10-23T04:33:26;2.60;;;0.60;;
37787;SDS011;23627;53.302;-6.362;2022-10-23T04:35:52;2.17;;;0.70;;
37787;SDS011;23627;53.302;-6.362;2022-10-23T04:38:18;2.83;;;0.82;;
37787;SDS011;23627;53.302;-6.362;2022-10-23T04:40:43;4.20;;;1.30;;
37787;SDS011;23627;53.302;-6.362;2022-10-23T04:43:09;3.17;;;0.93;;
37787;SDS011;23627;53.302;-6.362;2022-10-23T04:45:35;3.50;;;1.23;;
37787;SDS011;23627;53.302;-6.362;2022-10-23T04:48:00;3.03;;;0.90;;
37787;SDS011;23627;53.302;-6.362;2022-10-23T04:50:26;5.30;;;1.45;;
37787;SDS011;23627;53.302;-6.362;2022-10-23T04:52:52;3.90;;;1.50;;
37787;SDS011;23627;53.302;-6.362;2022-10-23T04:55:19;3.72;;;1.02;;
37787;SDS011;23627;53.302;-6.362;2022-10-23T04:57:45;5.28;;;1.67;;
37787;SDS011;23627;53.302;-6.362;2022-10-23T05:00:12;2.90;;;1.00;;
37787;SDS011;23627;53.302;-6.362;2022-10-23T05:02:40;4.57;;;0.95;;
37787;SDS011;23627;53.302;-6.362;2022-10-23T05:05:06;5.88;;;1.48;;
37787;SDS011;23627;53.302;-6.362;2022-10-23T05:07:32;1.63;;;0.88;;
37787;SDS011;23627;53.302;-6.362;2022-10-23T05:09:58;3.33;;;0.90;;
37787;SDS011;23627;53.302;-6.362;2022-10-23T05:12:24;3.72;;;0.93;;
37787;SDS011;23627;53.302;-6.362;2022-10-23T05:14:51;2.80;;;0.90;;
37787;SDS011;23627;53.302;-6.362;2022-10-23T05:17:22;2.38;;;1.00;;
37787;SDS011;23627;53.302;-6.362;2022-10-23T05:19:53;5.10;;;1.17;;
37787;SDS011;23627;53.302;-6.362;2022-10-23T05:22:21;3.92;;;1.15;;
37787;SDS011;23627;53.302;-6.362;2022-10-23T05:24:49;5.00;;;1.17;;
37787;SDS011;23627;53.302;-6.362;2022-10-23T05:27:15;3.40;;;1.05;;
37787;SDS011;23627;53.302;-6.362;2022-10-23T05:29:41;5.15;;;1.48;;
37787;SDS011;23627;53.302;-6.362;2022-10-23T05:32:07;1.67;;;1.00;;
37787;SDS011;23627;53.302;-6.362;2022-10-23T05:34:37;2.15;;;0.90;;
37787;SDS011;23627;53.302;-6.362;2022-10-23T05:37:04;3.78;;;1.05;;
37787;SDS011;23627;53.302;-6.362;2022-10-23T05:39:32;3.90;;;1.10;;
37787;SDS011;23627;53.302;-6.362;2022-10-23T05:41:58;4.18;;;1.08;;
37787;SDS011;23627;53.302;-6.362;2022-10-23T05:44:24;4.18;;;0.88;;
37787;SDS011;23627;53.302;-6.362;2022-10-23T05:46:49;2.05;;;0.90;;
37787;SDS011;23627;53.302;-6.362;2022-10-23T05:49:15;4.32;;;1.20;;
37787;SDS011;23627;53.302;-6.362;2022-10-23T05:51:41;10.27;;;1.60;;
37787;SDS011;23627;53.302;-6.362;2022-10-23T05:54:06;5.28;;;1.30;;
37787;SDS011;23627;53.302;-6.362;2022-10-23T05:56:36;5.05;;;1.50;;
37787;SDS011;23627;53.302;-6.362;2022-10-23T05:59:03;4.47;;;1.30;;
37787;SDS011;23627;53.302;-6.362;2022-10-23T06:01:29;5.13;;;1.10;;
37787;SDS011;23627;53.302;-6.362;2022-10-23T06:03:55;7.82;;;1.40;;
37787;SDS011;23627;53.302;-6.362;2022-10-23T06:06:22;5.95;;;1.42;;
37787;SDS011;23627;53.302;-6.362;2022-10-23T06:08:48;9.10;;;1.70;;
37787;SDS011;23627;53.302;-6.362;2022-10-23T06:11:14;6.82;;;1.40;;
37787;SDS011;23627;53.302;-6.362;2022-10-23T06:13:43;6.00;;;1.35;;
37787;SDS011;23627;53.302;-6.362;2022-10-23T06:16:11;6.88;;;1.30;;
37787;SDS011;23627;53.302;-6.362;2022-10-23T06:18:39;6.18;;;1.67;;
37787;SDS011;23627;53.302;-6.362;2022-10-23T06:21:05;6.65;;;1.40;;
37787;SDS011;23627;53.302;-6.362;2022-10-23T06:23:32;5.30;;;1.10;;
37787;SDS011;23627;53.302;-6.362;2022-10-23T06:25:59;5.05;;;1.15;;
37787;SDS011;23627;53.302;-6.362;2022-10-23T06:28:25;5.07;;;1.10;;
37787;SDS011;23627;53.302;-6.362;2022-10-23T06:30:51;7.20;;;1.20;;
37787;SDS011;23627;53.302;-6.362;2022-10-23T06:33:17;5.78;;;1.42;;
37787;SDS011;23627;53.302;-6.362;2022-10-23T06:35:43;7.22;;;1.42;;
37787;SDS011;23627;53.302;-6.362;2022-10-23T06:38:08;4.22;;;1.17;;
37787;SDS011;23627;53.302;-6.362;2022-10-23T06:40:35;6.97;;;1.30;;
37787;SDS011;23627;53.302;-6.362;2022-10-23T06:43:02;4.47;;;1.00;;
37787;SDS011;23627;53.302;-6.362;2022-10-23T06:45:28;3.95;;;0.98;;
37787;SDS011;23627;53.302;-6.362;2022-10-23T06:47:56;4.88;;;1.02;;
37787;SDS011;23627;53.302;-6.362;2022-10-23T06:50:22;8.20;;;1.38;;
37787;SDS011;23627;53.302;-6.362;2022-10-23T06:52:49;8.45;;;1.60;;
37787;SDS011;23627;53.302;-6.362;2022-10-23T06:55:15;5.53;;;1.10;;
37787;SDS011;23627;53.302;-6.362;2022-10-23T06:57:41;9.73;;;1.33;;
37787;SDS011;23627;53.302;-6.362;2022-10-23T07:00:08;5.90;;;1.20;;
37787;SDS011;23627;53.302;-6.362;2022-10-23T07:02:34;6.45;;;1.30;;
37787;SDS011;23627;53.302;-6.362;2022-10-23T07:05:00;5.53;;;1.30;;
37787;SDS011;23627;53.302;-6.362;2022-10-23T07:07:28;5.47;;;1.05;;
37787;SDS011;23627;53.302;-6.362;2022-10-23T07:09:54;7.07;;;1.35;;
37787;SDS011;23627;53.302;-6.362;2022-10-23T07:12:19;5.15;;;1.40;;
37787;SDS011;23627;53.302;-6.362;2022-10-23T07:14:45;8.00;;;1.35;;
37787;SDS011;23627;53.302;-6.362;2022-10-23T07:17:11;9.32;;;1.40;;
37787;SDS011;23627;53.302;-6.362;2022-10-23T07:19:37;6.35;;;1.40;;
37787;SDS011;23627;53.302;-6.362;2022-10-23T07:22:03;8.80;;;2.25;;
37787;SDS011;23627;53.302;-6.362;2022-10-23T07:24:28;6.93;;;1.40;;
37787;SDS011;23627;53.302;-6.362;2022-10-23T07:26:56;6.38;;;1.55;;
37787;SDS011;23627;53.302;-6.362;2022-10-23T07:29:22;7.07;;;1.67;;
37787;SDS011;23627;53.302;-6.362;2022-10-23T07:31:48;4.38;;;1.27;;
37787;SDS011;23627;53.302;-6.362;2022-10-23T07:34:14;7.50;;;1.20;;
37787;SDS011;23627;53.302;-6.362;2022-10-23T07:36:39;5.13;;;1.30;;
37787;SDS011;23627;53.302;-6.362;2022-10-23T07:39:05;5.68;;;1.20;;
37787;SDS011;23627;53.302;-6.362;2022-10-23T07:41:31;6.25;;;1.27;;
37787;SDS011;23627;53.302;-6.362;2022-10-23T07:43:57;4.85;;;1.30;;
37787;SDS011;23627;53.302;-6.362;2022-10-23T07:46:23;4.60;;;1.10;;
37787;SDS011;23627;53.302;-6.362;2022-10-23T07:48:49;7.60;;;1.33;;
37787;SDS011;23627;53.302;-6.362;2022-10-23T07:51:15;3.90;;;1.30;;
37787;SDS011;23627;53.302;-6.362;2022-10-23T07:53:41;5.28;;;1.02;;
37787;SDS011;23627;53.302;-6.362;2022-10-23T07:56:12;3.92;;;1.20;;
37787;SDS011;23627;53.302;-6.362;2022-10-23T07:58:44;5.68;;;1.70;;
37787;SDS011;23627;53.302;-6.362;2022-10-23T08:01:17;4.57;;;1.13;;
37787;SDS011;23627;53.302;-6.362;2022-10-23T08:03:50;6.55;;;1.30;;
37787;SDS011;23627;53.302;-6.362;2022-10-23T08:06:15;7.22;;;1.50;;
37787;SDS011;23627;53.302;-6.362;2022-10-23T08:08:41;5.88;;;1.27;;
37787;SDS011;23627;53.302;-6.362;2022-10-23T08:11:08;4.97;;;1.25;;
37787;SDS011;23627;53.302;-6.362;2022-10-23T08:13:37;6.75;;;1.20;;
37787;SDS011;23627;53.302;-6.362;2022-10-23T08:16:03;7.05;;;1.33;;
37787;SDS011;23627;53.302;-6.362;2022-10-23T08:18:29;4.75;;;1.35;;
37787;SDS011;23627;53.302;-6.362;2022-10-23T08:20:58;8.65;;;1.20;;
37787;SDS011;23627;53.302;-6.362;2022-10-23T08:23:25;8.55;;;1.80;;
37787;SDS011;23627;53.302;-6.362;2022-10-23T08:25:55;6.10;;;1.38;;
37787;SDS011;23627;53.302;-6.362;2022-10-23T08:28:23;6.45;;;1.67;;
37787;SDS011;23627;53.302;-6.362;2022-10-23T08:30:48;4.57;;;1.35;;
37787;SDS011;23627;53.302;-6.362;2022-10-23T08:33:14;3.40;;;1.10;;
37787;SDS011;23627;53.302;-6.362;2022-10-23T08:35:40;5.03;;;1.30;;
37787;SDS011;23627;53.302;-6.362;2022-10-23T08:38:05;6.72;;;1.67;;
37787;SDS011;23627;53.302;-6.362;2022-10-23T08:40:32;6.07;;;1.73;;
37787;SDS011;23627;53.302;-6.362;2022-10-23T08:45:44;5.15;;;1.48;;
37787;SDS011;23627;53.302;-6.362;2022-10-23T08:50:48;6.30;;;1.40;;
37787;SDS011;23627;53.302;-6.362;2022-10-23T08:53:21;7.25;;;2.10;;
37787;SDS011;23627;53.302;-6.362;2022-10-23T08:55:58;7.15;;;1.75;;
37787;SDS011;23627;53.302;-6.362;2022-10-23T08:58:35;3.95;;;1.50;;
37787;SDS011;23627;53.302;-6.362;2022-10-23T09:01:19;6.88;;;1.60;;
37787;SDS011;23627;53.302;-6.362;2022-10-23T09:03:48;7.72;;;1.80;;
37787;SDS011;23627;53.302;-6.362;2022-10-23T09:06:16;6.88;;;1.70;;
37787;SDS011;23627;53.302;-6.362;2022-10-23T09:08:58;7.15;;;1.67;;
37787;SDS011;23627;53.302;-6.362;2022-10-23T09:11:40;5.70;;;1.50;;
37787;SDS011;23627;53.302;-6.362;2022-10-23T09:17:09;5.07;;;1.38;;
37787;SDS011;23627;53.302;-6.362;2022-10-23T09:19:46;4.93;;;1.20;;
37787;SDS011;23627;53.302;-6.362;2022-10-23T09:22:15;4.70;;;1.60;;
37787;SDS011;23627;53.302;-6.362;2022-10-23T09:24:41;4.30;;;1.00;;
37787;SDS011;23627;53.302;-6.362;2022-10-23T09:27:08;3.78;;;1.30;;
37787;SDS011;23627;53.302;-6.362;2022-10-23T09:29:49;5.95;;;1.50;;
37787;SDS011;23627;53.302;-6.362;2022-10-23T09:32:17;3.53;;;0.98;;
37787;SDS011;23627;53.302;-6.362;2022-10-23T09:34:53;3.47;;;1.10;;
37787;SDS011;23627;53.302;-6.362;2022-10-23T09:37:24;4.80;;;1.52;;
37787;SDS011;23627;53.302;-6.362;2022-10-23T09:40:11;3.25;;;1.40;;
37787;SDS011;23627;53.302;-6.362;2022-10-23T09:42:52;2.90;;;1.00;;
37787;SDS011;23627;53.302;-6.362;2022-10-23T09:45:30;7.38;;;2.80;;
37787;SDS011;23627;53.302;-6.362;2022-10-23T09:50:33;3.20;;;1.02;;
37787;SDS011;23627;53.302;-6.362;2022-10-23T09:52:59;6.72;;;1.70;;
37787;SDS011;23627;53.302;-6.362;2022-10-23T09:55:25;3.20;;;1.13;;
37787;SDS011;23627;53.302;-6.362;2022-10-23T09:57:52;5.80;;;1.30;;
37787;SDS011;23627;53.302;-6.362;2022-10-23T10:00:20;7.18;;;1.30;;
37787;SDS011;23627;53.302;-6.362;2022-10-23T10:03:06;5.10;;;1.30;;
37787;SDS011;23627;53.302;-6.362;2022-10-23T10:05:43;3.35;;;1.00;;
37787;SDS011;23627;53.302;-6.362;2022-10-23T10:08:20;5.57;;;1.25;;
37787;SDS011;23627;53.302;-6.362;2022-10-23T10:13:52;5.40;;;1.48;;
37787;SDS011;23627;53.302;-6.362;2022-10-23T10:19:43;5.97;;;1.05;;
37787;SDS011;23627;53.302;-6.362;2022-10-23T10:28:27;5.80;;;1.10;;
37787;SDS011;23627;53.302;-6.362;2022-10-23T10:36:10;7.20;;;1.23;;
37787;SDS011;23627;53.302;-6.362;2022-10-23T10:38:59;3.47;;;0.85;;
37787;SDS011;23627;53.302;-6.362;2022-10-23T10:46:57;2.72;;;1.17;;
37787;SDS011;23627;53.302;-6.362;2022-10-23T10:49:31;3.33;;;0.90;;
37787;SDS011;23627;53.302;-6.362;2022-10-23T10:57:39;5.43;;;1.33;;
37787;SDS011;23627;53.302;-6.362;2022-10-23T11:00:18;2.65;;;0.98;;
37787;SDS011;23627;53.302;-6.362;2022-10-23T11:02:47;4.07;;;0.77;;
37787;SDS011;23627;53.302;-6.362;2022-10-23T11:05:18;3.85;;;0.93;;
37787;SDS011;23627;53.302;-6.362;2022-10-23T11:08:06;3.80;;;0.70;;
37787;SDS011;23627;53.302;-6.362;2022-10-23T11:10:39;2.85;;;0.70;;
37787;SDS011;23627;53.302;-6.362;2022-10-23T11:13:43;4.03;;;0.70;;
37787;SDS011;23627;53.302;-6.362;2022-10-23T11:16:20;4.32;;;0.80;;
37787;SDS011;23627;53.302;-6.362;2022-10-23T11:30:00;4.55;;;0.90;;
37787;SDS011;23627;53.302;-6.362;2022-10-23T11:32:38;5.07;;;0.85;;
37787;SDS011;23627;53.302;-6.362;2022-10-23T11:40:32;2.55;;;0.73;;
37787;SDS011;23627;53.302;-6.362;2022-10-23T11:42:57;3.25;;;0.85;;
37787;SDS011;23627;53.302;-6.362;2022-10-23T11:45:24;2.65;;;0.70;;
37787;SDS011;23627;53.302;-6.362;2022-10-23T11:48:05;2.95;;;0.80;;
37787;SDS011;23627;53.302;-6.362;2022-10-23T11:55:56;3.45;;;0.70;;
37787;SDS011;23627;53.302;-6.362;2022-10-23T11:58:24;4.05;;;0.70;;
37787;SDS011;23627;53.302;-6.362;2022-10-23T12:03:39;3.42;;;0.70;;
37787;SDS011;23627;53.302;-6.362;2022-10-23T12:06:19;2.90;;;0.60;;
37787;SDS011;23627;53.302;-6.362;2022-10-23T12:08:49;4.40;;;0.60;;
37787;SDS011;23627;53.302;-6.362;2022-10-23T12:11:24;2.53;;;0.77;;
37787;SDS011;23627;53.302;-6.362;2022-10-23T12:14:03;3.53;;;0.93;;
37787;SDS011;23627;53.302;-6.362;2022-10-23T12:16:34;4.72;;;0.77;;
37787;SDS011;23627;53.302;-6.362;2022-10-23T12:19:00;6.03;;;1.13;;
37787;SDS011;23627;53.302;-6.362;2022-10-23T12:21:43;4.82;;;0.90;;
37787;SDS011;23627;53.302;-6.362;2022-10-23T12:24:20;3.72;;;1.10;;
37787;SDS011;23627;53.302;-6.362;2022-10-23T12:27:18;4.07;;;0.80;;
37787;SDS011;23627;53.302;-6.362;2022-10-23T12:29:50;5.10;;;0.77;;
37787;SDS011;23627;53.302;-6.362;2022-10-23T12:32:41;2.70;;;0.55;;
37787;SDS011;23627;53.302;-6.362;2022-10-23T12:38:04;2.85;;;0.68;;
37787;SDS011;23627;53.302;-6.362;2022-10-23T12:40:39;3.28;;;0.85;;
37787;SDS011;23627;53.302;-6.362;2022-10-23T12:43:22;3.88;;;0.60;;
37787;SDS011;23627;53.302;-6.362;2022-10-23T12:45:49;5.43;;;1.00;;
37787;SDS011;23627;53.302;-6.362;2022-10-23T12:48:19;5.22;;;0.80;;
37787;SDS011;23627;53.302;-6.362;2022-10-23T12:50:50;4.78;;;0.73;;
37787;SDS011;23627;53.302;-6.362;2022-10-23T12:53:18;3.28;;;0.80;;
37787;SDS011;23627;53.302;-6.362;2022-10-23T12:55:47;4.43;;;1.00;;
37787;SDS011;23627;53.302;-6.362;2022-10-23T12:58:26;3.85;;;0.90;;
37787;SDS011;23627;53.302;-6.362;2022-10-23T13:00:58;2.83;;;0.60;;
37787;SDS011;23627;53.302;-6.362;2022-10-23T13:03:29;3.38;;;0.80;;
37787;SDS011;23627;53.302;-6.362;2022-10-23T13:05:57;4.00;;;0.75;;
37787;SDS011;23627;53.302;-6.362;2022-10-23T13:08:32;4.78;;;0.85;;
37787;SDS011;23627;53.302;-6.362;2022-10-23T13:11:03;5.88;;;0.98;;
37787;SDS011;23627;53.302;-6.362;2022-10-23T13:13:30;5.32;;;0.70;;
37787;SDS011;23627;53.302;-6.362;2022-10-23T13:15:56;4.55;;;0.90;;
37787;SDS011;23627;53.302;-6.362;2022-10-23T13:18:21;4.85;;;0.80;;
37787;SDS011;23627;53.302;-6.362;2022-10-23T13:23:29;5.25;;;0.80;;
37787;SDS011;23627;53.302;-6.362;2022-10-23T13:25:58;5.90;;;0.70;;
37787;SDS011;23627;53.302;-6.362;2022-10-23T13:28:32;4.53;;;0.73;;
37787;SDS011;23627;53.302;-6.362;2022-10-23T13:31:20;4.07;;;1.10;;
37787;SDS011;23627;53.302;-6.362;2022-10-23T13:36:23;5.00;;;0.82;;
37787;SDS011;23627;53.302;-6.362;2022-10-23T13:41:23;5.55;;;0.85;;
37787;SDS011;23627;53.302;-6.362;2022-10-23T13:43:50;2.75;;;0.75;;
37787;SDS011;23627;53.302;-6.362;2022-10-23T13:46:17;4.15;;;0.70;;
37787;SDS011;23627;53.302;-6.362;2022-10-23T13:48:44;3.00;;;0.77;;
37787;SDS011;23627;53.302;-6.362;2022-10-23T13:51:15;6.13;;;1.20;;
37787;SDS011;23627;53.302;-6.362;2022-10-23T13:53:45;3.50;;;1.13;;
37787;SDS011;23627;53.302;-6.362;2022-10-23T13:56:12;6.20;;;1.00;;
37787;SDS011;23627;53.302;-6.362;2022-10-23T13:58:39;4.25;;;0.80;;
37787;SDS011;23627;53.302;-6.362;2022-10-23T14:01:05;4.15;;;0.88;;
37787;SDS011;23627;53.302;-6.362;2022-10-23T14:03:36;5.85;;;1.17;;
37787;SDS011;23627;53.302;-6.362;2022-10-23T14:06:02;3.70;;;0.88;;
37787;SDS011;23627;53.302;-6.362;2022-10-23T14:08:27;3.60;;;0.80;;
37787;SDS011;23627;53.302;-6.362;2022-10-23T14:10:53;4.38;;;0.90;;
37787;SDS011;23627;53.302;-6.362;2022-10-23T14:13:19;6.70;;;0.80;;
37787;SDS011;23627;53.302;-6.362;2022-10-23T14:15:51;4.03;;;0.68;;
37787;SDS011;23627;53.302;-6.362;2022-10-23T14:18:20;4.05;;;0.93;;
37787;SDS011;23627;53.302;-6.362;2022-10-23T14:20:46;4.13;;;0.82;;
37787;SDS011;23627;53.302;-6.362;2022-10-23T14:23:12;4.20;;;0.82;;
37787;SDS011;23627;53.302;-6.362;2022-10-23T14:25:37;3.15;;;0.80;;
37787;SDS011;23627;53.302;-6.362;2022-10-23T14:28:03;4.57;;;0.80;;
37787;SDS011;23627;53.302;-6.362;2022-10-23T14:30:29;4.97;;;1.10;;
37787;SDS011;23627;53.302;-6.362;2022-10-23T14:32:55;5.72;;;1.05;;
37787;SDS011;23627;53.302;-6.362;2022-10-23T14:35:20;5.68;;;1.15;;
37787;SDS011;23627;53.302;-6.362;2022-10-23T14:37:46;4.50;;;1.13;;
37787;SDS011;23627;53.302;-6.362;2022-10-23T14:40:12;5.40;;;1.00;;
37787;SDS011;23627;53.302;-6.362;2022-10-23T14:42:38;6.68;;;1.38;;
37787;SDS011;23627;53.302;-6.362;2022-10-23T14:45:04;4.13;;;1.00;;
37787;SDS011;23627;53.302;-6.362;2022-10-23T14:47:30;5.03;;;1.00;;
37787;SDS011;23627;53.302;-6.362;2022-10-23T14:49:56;6.00;;;1.00;;
37787;SDS011;23627;53.302;-6.362;2022-10-23T14:52:22;10.05;;;1.10;;
37787;SDS011;23627;53.302;-6.362;2022-10-23T14:54:52;6.18;;;1.25;;
37787;SDS011;23627;53.302;-6.362;2022-10-23T14:57:18;5.03;;;0.95;;
37787;SDS011;23627;53.302;-6.362;2022-10-23T14:59:45;6.93;;;1.20;;
37787;SDS011;23627;53.302;-6.362;2022-10-23T15:02:12;4.50;;;0.90;;
37787;SDS011;23627;53.302;-6.362;2022-10-23T15:04:38;4.95;;;1.00;;
37787;SDS011;23627;53.302;-6.362;2022-10-23T15:07:04;5.82;;;1.30;;
37787;SDS011;23627;53.302;-6.362;2022-10-23T15:09:30;6.65;;;1.25;;
37787;SDS011;23627;53.302;-6.362;2022-10-23T15:12:01;6.95;;;1.10;;
37787;SDS011;23627;53.302;-6.362;2022-10-23T15:14:27;7.43;;;1.30;;
37787;SDS011;23627;53.302;-6.362;2022-10-23T15:16:53;5.20;;;0.90;;
37787;SDS011;23627;53.302;-6.362;2022-10-23T15:19:19;4.95;;;1.10;;
37787;SDS011;23627;53.302;-6.362;2022-10-23T15:21:48;8.95;;;1.75;;
37787;SDS011;23627;53.302;-6.362;2022-10-23T15:24:14;8.05;;;1.23;;
37787;SDS011;23627;53.302;-6.362;2022-10-23T15:26:41;6.90;;;1.40;;
37787;SDS011;23627;53.302;-6.362;2022-10-23T15:29:07;7.82;;;1.38;;
37787;SDS011;23627;53.302;-6.362;2022-10-23T15:34:05;7.07;;;1.38;;
37787;SDS011;23627;53.302;-6.362;2022-10-23T15:36:32;5.07;;;0.98;;
37787;SDS011;23627;53.302;-6.362;2022-10-23T15:38:58;5.47;;;1.10;;
37787;SDS011;23627;53.302;-6.362;2022-10-23T15:41:31;6.15;;;1.30;;
37787;SDS011;23627;53.302;-6.362;2022-10-23T15:43:58;5.80;;;1.30;;
37787;SDS011;23627;53.302;-6.362;2022-10-23T15:46:25;5.63;;;1.10;;
37787;SDS011;23627;53.302;-6.362;2022-10-23T15:48:51;6.05;;;1.13;;
37787;SDS011;23627;53.302;-6.362;2022-10-23T15:51:17;5.03;;;1.35;;
37787;SDS011;23627;53.302;-6.362;2022-10-23T15:53:43;5.68;;;1.95;;
37787;SDS011;23627;53.302;-6.362;2022-10-23T15:56:09;8.48;;;1.58;;
37787;SDS011;23627;53.302;-6.362;2022-10-23T15:58:35;8.45;;;1.40;;
37787;SDS011;23627;53.302;-6.362;2022-10-23T16:01:01;8.38;;;1.30;;
37787;SDS011;23627;53.302;-6.362;2022-10-23T16:03:30;7.28;;;1.83;;
37787;SDS011;23627;53.302;-6.362;2022-10-23T16:05:57;6.53;;;1.30;;
37787;SDS011;23627;53.302;-6.362;2022-10-23T16:08:23;6.30;;;1.15;;
37787;SDS011;23627;53.302;-6.362;2022-10-23T16:10:50;13.50;;;1.80;;
37787;SDS011;23627;53.302;-6.362;2022-10-23T16:13:16;7.97;;;1.60;;
37787;SDS011;23627;53.302;-6.362;2022-10-23T16:15:42;7.03;;;1.20;;
37787;SDS011;23627;53.302;-6.362;2022-10-23T16:18:07;3.97;;;1.17;;
37787;SDS011;23627;53.302;-6.362;2022-10-23T16:20:34;5.25;;;1.25;;
37787;SDS011;23627;53.302;-6.362;2022-10-23T16:23:03;7.60;;;1.42;;
37787;SDS011;23627;53.302;-6.362;2022-10-23T16:25:29;7.30;;;1.35;;
37787;SDS011;23627;53.302;-6.362;2022-10-23T16:27:56;8.57;;;1.48;;
37787;SDS011;23627;53.302;-6.362;2022-10-23T16:30:23;7.53;;;1.30;;
37787;SDS011;23627;53.302;-6.362;2022-10-23T16:32:48;8.05;;;1.75;;
37787;SDS011;23627;53.302;-6.362;2022-10-23T16:35:14;6.80;;;1.50;;
37787;SDS011;23627;53.302;-6.362;2022-10-23T16:37:40;7.20;;;1.45;;
37787;SDS011;23627;53.302;-6.362;2022-10-23T16:40:06;7.00;;;1.58;;
37787;SDS011;23627;53.302;-6.362;2022-10-23T16:42:32;8.98;;;1.80;;
37787;SDS011;23627;53.302;-6.362;2022-10-23T16:44:58;11.40;;;1.80;;
37787;SDS011;23627;53.302;-6.362;2022-10-23T16:47:24;9.57;;;1.70;;
37787;SDS011;23627;53.302;-6.362;2022-10-23T16:49:49;7.85;;;1.67;;